createdAt,value
2018-10-17T00:00:54.276Z,16.60
2018-10-17T00:03:22.500Z,16.60
2018-10-17T00:05:50.731Z,16.60
2018-10-17T00:08:18.963Z,16.50
2018-10-17T00:10:47.263Z,16.40
2018-10-17T00:13:15.613Z,16.30
2018-10-17T00:15:43.804Z,16.20
2018-10-17T00:18:12.036Z,16.10
2018-10-17T00:20:40.281Z,16.10
2018-10-17T00:23:09.066Z,16.00
2018-10-17T00:25:37.361Z,15.90
2018-10-17T00:28:05.600Z,15.80
2018-10-17T00:30:33.856Z,15.80
2018-10-17T00:33:02.141Z,15.70
2018-10-17T00:35:30.389Z,15.70
2018-10-17T00:37:58.588Z,15.70
2018-10-17T00:40:26.911Z,15.70
2018-10-17T00:42:55.793Z,15.70
2018-10-17T00:45:23.992Z,15.60
2018-10-17T00:47:52.260Z,15.60
2018-10-17T00:50:20.490Z,15.50
2018-10-17T00:52:48.774Z,15.50
2018-10-17T00:55:17.004Z,15.40
2018-10-17T00:57:45.288Z,15.40
2018-10-17T01:00:13.543Z,15.40
2018-10-17T01:02:41.758Z,15.40
2018-10-17T01:05:10.116Z,15.40
2018-10-17T01:07:38.481Z,15.30
2018-10-17T01:10:06.711Z,15.30
2018-10-17T01:12:34.977Z,15.20
2018-10-17T01:15:03.195Z,15.20
2018-10-17T01:17:31.419Z,15.10
2018-10-17T01:19:59.669Z,15.10
2018-10-17T01:22:28.039Z,15.10
2018-10-17T01:24:56.301Z,15.10
2018-10-17T01:27:24.955Z,15.10
2018-10-17T01:29:53.166Z,15.10
2018-10-17T01:32:21.428Z,15.10
2018-10-17T01:34:49.713Z,15.00
2018-10-17T01:37:18.146Z,15.00
2018-10-17T01:39:46.288Z,15.00
2018-10-17T01:42:14.543Z,15.00
2018-10-17T01:44:43.048Z,15.00
2018-10-17T01:47:11.399Z,15.00
2018-10-17T01:49:39.567Z,14.90
2018-10-17T01:52:08.727Z,14.90
2018-10-17T01:54:37.067Z,14.90
2018-10-17T01:57:05.897Z,14.90
2018-10-17T01:59:34.137Z,14.90
2018-10-17T02:02:02.364Z,14.90
2018-10-17T02:04:30.604Z,15.00
2018-10-17T02:06:58.878Z,15.00
2018-10-17T02:09:27.123Z,15.00
2018-10-17T02:11:55.351Z,15.00
2018-10-17T02:14:23.607Z,15.00
2018-10-17T02:16:52.012Z,15.00
2018-10-17T02:19:20.284Z,15.00
2018-10-17T02:21:48.559Z,15.00
2018-10-17T02:24:16.820Z,15.00
2018-10-17T02:26:45.081Z,15.00
2018-10-17T02:29:13.383Z,15.00
2018-10-17T02:31:41.547Z,15.00
2018-10-17T02:34:09.811Z,15.10
2018-10-17T02:36:38.074Z,15.10
2018-10-17T02:39:07.804Z,15.10
2018-10-17T02:41:36.063Z,15.20
2018-10-17T02:44:04.763Z,15.20
2018-10-17T02:46:33.036Z,15.20
2018-10-17T02:49:01.370Z,15.30
2018-10-17T02:51:29.556Z,15.30
2018-10-17T02:53:57.861Z,15.30
2018-10-17T02:56:26.192Z,15.30
2018-10-17T02:58:54.456Z,15.30
2018-10-17T03:01:22.690Z,15.30
2018-10-17T03:03:50.959Z,15.30
2018-10-17T03:06:19.228Z,15.30
2018-10-17T03:08:47.467Z,15.30
2018-10-17T03:11:15.818Z,15.20
2018-10-17T03:13:44.116Z,15.20
2018-10-17T03:16:12.363Z,15.20
2018-10-17T03:18:40.611Z,15.10
2018-10-17T03:21:08.853Z,15.10
2018-10-17T03:23:37.124Z,15.10
2018-10-17T03:26:05.623Z,15.10
2018-10-17T03:28:33.863Z,15.10
2018-10-17T03:31:02.121Z,15.00
2018-10-17T03:33:30.417Z,15.10
2018-10-17T03:35:59.525Z,15.10
2018-10-17T03:38:27.704Z,15.10
2018-10-17T03:40:56.017Z,15.10
2018-10-17T03:43:24.214Z,15.10
2018-10-17T03:45:52.439Z,15.00
2018-10-17T03:48:20.707Z,15.00
2018-10-17T03:50:49.443Z,15.00
2018-10-17T03:53:17.786Z,14.90
2018-10-17T03:55:46.037Z,14.80
2018-10-17T03:58:14.352Z,14.80
2018-10-17T04:00:42.564Z,14.70
2018-10-17T04:03:11.149Z,14.70
2018-10-17T04:05:39.436Z,14.60
2018-10-17T04:08:07.713Z,14.70
2018-10-17T04:10:35.925Z,14.60
2018-10-17T04:13:04.263Z,14.60
2018-10-17T04:15:32.485Z,14.60
2018-10-17T04:18:00.747Z,14.60
2018-10-17T04:20:29.021Z,14.50
2018-10-17T04:22:57.603Z,14.60
2018-10-17T04:25:26.084Z,14.60
2018-10-17T04:27:55.336Z,14.50
2018-10-17T04:30:23.781Z,14.50
2018-10-17T04:32:52.024Z,14.50
2018-10-17T04:35:20.313Z,14.50
2018-10-17T04:37:48.546Z,14.50
2018-10-17T04:40:16.802Z,14.50
2018-10-17T04:42:45.160Z,14.40
2018-10-17T04:45:13.380Z,14.40
2018-10-17T04:47:41.732Z,14.40
2018-10-17T04:50:10.932Z,14.40
2018-10-17T04:52:39.586Z,14.40
2018-10-17T04:55:08.815Z,14.40
2018-10-17T04:57:37.056Z,14.30
2018-10-17T05:00:07.497Z,14.30
2018-10-17T05:02:35.740Z,14.20
2018-10-17T05:05:04.121Z,14.30
2018-10-17T05:07:32.346Z,14.20
2018-10-17T05:10:00.612Z,14.20
2018-10-17T05:12:28.894Z,14.20
2018-10-17T05:14:57.160Z,14.20
2018-10-17T05:17:25.408Z,14.10
2018-10-17T05:19:53.755Z,14.10
2018-10-17T05:22:22.096Z,14.10
2018-10-17T05:24:50.326Z,14.10
2018-10-17T05:27:18.581Z,14.10
2018-10-17T05:29:46.832Z,14.10
2018-10-17T05:32:15.203Z,14.10
2018-10-17T05:34:43.469Z,14.00
2018-10-17T05:37:11.818Z,14.00
2018-10-17T05:39:40.200Z,14.00
2018-10-17T05:42:08.454Z,14.00
2018-10-17T05:44:36.853Z,14.10
2018-10-17T05:47:05.308Z,14.10
2018-10-17T05:49:33.540Z,14.10
2018-10-17T05:52:01.793Z,14.10
2018-10-17T05:54:30.030Z,14.20
2018-10-17T05:56:58.296Z,14.30
2018-10-17T05:59:26.563Z,14.30
2018-10-17T06:01:55.230Z,14.50
2018-10-17T06:04:23.455Z,14.50
2018-10-17T06:06:51.733Z,14.60
2018-10-17T06:09:20.113Z,14.60
2018-10-17T06:11:48.356Z,14.70
2018-10-17T06:14:17.461Z,14.80
2018-10-17T06:16:46.782Z,14.80
2018-10-17T06:19:15.188Z,15.00
2018-10-17T06:21:43.449Z,15.10
2018-10-17T06:24:11.699Z,15.20
2018-10-17T06:26:39.932Z,15.40
2018-10-17T06:29:08.277Z,15.50
2018-10-17T06:31:36.615Z,15.60
2018-10-17T06:34:04.988Z,15.70
2018-10-17T06:36:33.163Z,15.80
2018-10-17T06:39:01.457Z,15.90
2018-10-17T06:41:29.700Z,16.00
2018-10-17T06:43:58.095Z,16.10
2018-10-17T06:46:26.432Z,16.20
2018-10-17T06:48:54.698Z,16.30
2018-10-17T06:51:22.936Z,16.40
2018-10-17T06:53:51.267Z,16.50
2018-10-17T06:56:19.498Z,16.60
2018-10-17T06:58:47.776Z,16.70
2018-10-17T07:01:16.130Z,16.80
2018-10-17T07:03:44.289Z,16.80
2018-10-17T07:06:12.572Z,16.90
2018-10-17T07:08:40.969Z,17.00
2018-10-17T07:11:09.191Z,17.00
2018-10-17T07:13:37.465Z,17.10
2018-10-17T07:16:05.734Z,17.20
2018-10-17T07:18:34.032Z,17.20
2018-10-17T07:21:02.293Z,17.20
2018-10-17T07:23:30.517Z,17.10
2018-10-17T07:25:58.768Z,17.00
2018-10-17T07:28:27.125Z,17.00
2018-10-17T07:30:55.397Z,17.00
2018-10-17T07:33:23.670Z,17.10
2018-10-17T07:35:52.112Z,17.10
2018-10-17T07:38:20.340Z,17.20
2018-10-17T07:40:48.639Z,17.30
2018-10-17T07:43:16.891Z,17.30
2018-10-17T07:45:45.196Z,17.40
2018-10-17T07:48:13.721Z,17.50
2018-10-17T07:50:41.914Z,17.50
2018-10-17T07:53:10.765Z,17.50
2018-10-17T07:55:39.029Z,17.60
2018-10-17T07:58:07.324Z,17.80
2018-10-17T08:00:35.565Z,17.90
2018-10-17T08:03:03.838Z,18.00
2018-10-17T08:05:32.080Z,18.10
2018-10-17T08:08:00.309Z,18.20
2018-10-17T08:10:28.620Z,18.30
2018-10-17T08:12:56.861Z,18.30
2018-10-17T08:15:25.076Z,18.40
2018-10-17T08:17:53.332Z,18.60
2018-10-17T08:20:21.573Z,18.70
2018-10-17T08:22:49.813Z,18.80
2018-10-17T08:25:18.063Z,18.80
2018-10-17T08:27:46.369Z,18.90
2018-10-17T08:30:14.746Z,19.00
2018-10-17T08:32:43.019Z,19.20
2018-10-17T08:35:11.317Z,19.30
2018-10-17T08:37:39.897Z,19.40
2018-10-17T08:40:07.809Z,19.50
2018-10-17T08:42:36.033Z,19.60
2018-10-17T08:45:04.588Z,19.60
2018-10-17T08:47:32.787Z,19.80
2018-10-17T08:50:01.104Z,19.80
2018-10-17T08:52:29.312Z,19.90
2018-10-17T08:54:57.576Z,19.90
2018-10-17T08:57:25.820Z,20.00
2018-10-17T08:59:54.073Z,20.10
2018-10-17T09:02:23.257Z,20.10
2018-10-17T09:04:51.512Z,20.10
2018-10-17T09:07:19.787Z,20.20
2018-10-17T09:09:48.041Z,20.20
2018-10-17T09:12:16.418Z,20.40
2018-10-17T09:14:45.294Z,20.50
2018-10-17T09:17:13.587Z,20.70
2018-10-17T09:19:42.032Z,20.80
2018-10-17T09:22:10.347Z,21.00
2018-10-17T09:24:38.368Z,21.10
2018-10-17T09:27:06.639Z,21.10
2018-10-17T09:29:35.517Z,21.10
2018-10-17T09:32:03.857Z,21.10
2018-10-17T09:34:32.110Z,21.20
2018-10-17T09:37:00.333Z,21.30
2018-10-17T09:39:28.719Z,21.20
2018-10-17T09:41:57.056Z,21.20
2018-10-17T09:44:25.260Z,21.20
2018-10-17T09:46:53.510Z,21.20
2018-10-17T09:49:21.777Z,21.10
2018-10-17T09:51:50.112Z,21.20
2018-10-17T09:54:18.460Z,21.20
2018-10-17T09:56:46.660Z,21.20
2018-10-17T09:59:14.910Z,21.30
2018-10-17T10:01:54.096Z,21.40
2018-10-17T10:04:22.937Z,21.50
2018-10-17T10:06:51.246Z,21.60
2018-10-17T10:09:20.091Z,21.50
2018-10-17T10:11:48.317Z,21.70
2018-10-17T10:14:16.529Z,21.80
2018-10-17T10:16:44.788Z,21.80
2018-10-17T10:19:13.020Z,22.00
2018-10-17T10:21:41.289Z,22.10
2018-10-17T10:24:09.548Z,22.20
2018-10-17T10:26:37.765Z,22.30
2018-10-17T10:29:06.036Z,22.50
2018-10-17T10:31:34.309Z,22.60
2018-10-17T10:34:02.634Z,22.80
2018-10-17T10:36:30.873Z,22.90
2018-10-17T10:38:59.066Z,23.00
2018-10-17T10:41:27.272Z,23.10
2018-10-17T10:43:55.592Z,23.10
2018-10-17T10:46:23.779Z,23.20
2018-10-17T10:48:52.032Z,23.20
2018-10-17T10:51:20.397Z,23.20
2018-10-17T10:53:48.561Z,23.20
2018-10-17T10:56:16.857Z,23.30
2018-10-17T10:58:45.227Z,23.30
2018-10-17T11:01:13.506Z,23.40
2018-10-17T11:03:41.762Z,23.40
2018-10-17T11:06:09.982Z,23.50
2018-10-17T11:08:38.279Z,23.60
2018-10-17T11:11:06.585Z,23.70
2018-10-17T11:13:34.867Z,23.80
2018-10-17T11:16:03.102Z,23.80
2018-10-17T11:18:31.369Z,23.80
2018-10-17T11:20:59.656Z,23.90
2018-10-17T11:23:27.861Z,23.90
2018-10-17T11:25:56.185Z,23.90
2018-10-17T11:28:24.418Z,23.90
2018-10-17T11:30:52.674Z,23.90
2018-10-17T11:33:21.022Z,23.90
2018-10-17T11:35:49.268Z,23.90
2018-10-17T11:38:17.745Z,24.00
2018-10-17T11:40:46.379Z,24.00
2018-10-17T11:43:14.450Z,24.00
2018-10-17T11:45:42.720Z,24.00
2018-10-17T11:48:11.023Z,24.00
2018-10-17T11:50:39.366Z,24.00
2018-10-17T11:53:07.608Z,24.00
2018-10-17T11:55:35.881Z,24.10
2018-10-17T11:58:04.173Z,24.10
2018-10-17T12:00:32.476Z,24.20
2018-10-17T12:03:01.662Z,24.20
2018-10-17T12:05:30.223Z,24.20
2018-10-17T12:07:58.233Z,24.20
2018-10-17T12:10:26.539Z,24.20
2018-10-17T12:12:55.768Z,24.30
2018-10-17T12:15:24.011Z,24.30
2018-10-17T12:17:52.325Z,24.30
2018-10-17T12:20:20.596Z,24.30
2018-10-17T12:22:48.877Z,24.30
2018-10-17T12:25:17.166Z,24.30
2018-10-17T12:27:45.442Z,24.30
2018-10-17T12:30:14.880Z,24.40
2018-10-17T12:32:43.046Z,24.30
2018-10-17T12:35:12.257Z,24.30
2018-10-17T12:37:41.163Z,24.30
2018-10-17T12:40:10.346Z,24.30
2018-10-17T12:42:38.637Z,24.30
2018-10-17T12:45:07.156Z,24.20
2018-10-17T12:47:35.568Z,24.20
2018-10-17T12:50:04.017Z,24.10
2018-10-17T12:52:32.347Z,24.10
2018-10-17T12:55:00.554Z,24.10
2018-10-17T12:57:28.922Z,24.00
2018-10-17T12:59:57.336Z,23.90
2018-10-17T13:02:25.697Z,23.90
2018-10-17T13:04:53.913Z,23.90
2018-10-17T13:07:22.129Z,24.00
2018-10-17T13:09:50.309Z,24.00
2018-10-17T13:12:18.547Z,24.00
2018-10-17T13:14:46.965Z,23.90
2018-10-17T13:17:15.282Z,23.90
2018-10-17T13:19:43.612Z,23.90
2018-10-17T13:22:11.940Z,23.90
2018-10-17T13:24:40.311Z,23.80
2018-10-17T13:27:08.670Z,23.80
2018-10-17T13:29:36.935Z,23.80
2018-10-17T13:32:05.236Z,23.80
2018-10-17T13:34:33.469Z,23.80
2018-10-17T13:37:01.911Z,23.90
2018-10-17T13:39:30.212Z,24.00
2018-10-17T13:41:58.488Z,24.00
2018-10-17T13:44:27.051Z,24.00
2018-10-17T13:46:55.265Z,24.00
2018-10-17T13:49:23.561Z,24.00
2018-10-17T13:51:52.005Z,23.90
2018-10-17T13:54:21.165Z,23.90
2018-10-17T13:56:49.419Z,23.90
2018-10-17T13:59:17.805Z,23.90
2018-10-17T14:01:46.106Z,23.90
2018-10-17T14:04:14.531Z,23.90
2018-10-17T14:06:42.689Z,23.90
2018-10-17T14:09:11.743Z,23.80
2018-10-17T14:11:40.189Z,23.80
2018-10-17T14:14:08.418Z,23.80
2018-10-17T14:16:36.753Z,23.70
2018-10-17T14:19:05.022Z,23.60
2018-10-17T14:21:33.241Z,23.60
2018-10-17T14:24:01.646Z,23.60
2018-10-17T14:26:29.853Z,23.60
2018-10-17T14:28:58.195Z,23.60
2018-10-17T14:31:26.492Z,23.70
2018-10-17T14:33:54.752Z,23.70
2018-10-17T14:36:23.021Z,23.70
2018-10-17T14:38:51.252Z,23.70
2018-10-17T14:41:19.590Z,23.70
2018-10-17T14:43:47.923Z,23.70
2018-10-17T14:46:16.245Z,23.60
2018-10-17T14:48:44.501Z,23.60
2018-10-17T14:51:13.182Z,23.50
2018-10-17T14:53:41.645Z,23.40
2018-10-17T14:56:10.042Z,23.40
2018-10-17T14:58:38.293Z,23.30
2018-10-17T15:01:06.563Z,23.20
2018-10-17T15:03:34.819Z,23.10
2018-10-17T15:06:03.212Z,23.10
2018-10-17T15:08:31.683Z,23.00
2018-10-17T15:11:01.056Z,23.00
2018-10-17T15:13:29.207Z,22.90
2018-10-17T15:15:57.521Z,22.90
2018-10-17T15:18:25.807Z,22.80
2018-10-17T15:20:54.169Z,22.70
2018-10-17T15:23:22.969Z,22.30
2018-10-17T15:25:51.391Z,22.00
2018-10-17T15:28:19.710Z,21.50
2018-10-17T15:30:48.016Z,21.40
2018-10-17T15:33:16.368Z,21.10
2018-10-17T15:35:44.825Z,20.90
2018-10-17T15:38:13.480Z,20.80
2018-10-17T15:40:41.791Z,20.70
2018-10-17T15:43:10.214Z,20.50
2018-10-17T15:45:38.483Z,20.40
2018-10-17T15:48:06.805Z,20.30
2018-10-17T15:50:35.189Z,20.20
2018-10-17T15:53:04.787Z,20.10
2018-10-17T15:55:33.008Z,20.00
2018-10-17T15:58:01.427Z,19.90
2018-10-17T16:00:30.018Z,19.80
2018-10-17T16:02:58.883Z,19.60
2018-10-17T16:05:27.337Z,19.50
2018-10-17T16:07:55.847Z,19.50
2018-10-17T16:10:24.245Z,19.30
2018-10-17T16:12:52.659Z,19.20
2018-10-17T16:15:21.076Z,19.20
2018-10-17T16:17:49.409Z,19.00
2018-10-17T16:20:19.032Z,18.90
2018-10-17T16:22:48.475Z,18.70
2018-10-17T16:25:17.224Z,18.50
2018-10-17T16:27:46.129Z,18.40
2018-10-17T16:30:15.569Z,18.30
2018-10-17T16:32:44.564Z,18.10
2018-10-17T16:35:13.147Z,18.00
2018-10-17T16:37:42.340Z,17.80
2018-10-17T16:40:11.199Z,17.70
2018-10-17T16:42:40.437Z,17.50
2018-10-17T16:45:09.590Z,17.40
2018-10-17T16:47:39.320Z,17.30
2018-10-17T16:50:07.814Z,17.20
2018-10-17T16:52:36.644Z,17.10
2018-10-17T16:55:06.190Z,17.00
2018-10-17T16:57:35.154Z,17.00
2018-10-17T17:00:04.047Z,16.90
2018-10-17T17:02:33.418Z,16.90
2018-10-17T17:05:01.879Z,16.90
2018-10-17T17:07:31.754Z,16.90
2018-10-17T17:10:00.972Z,16.80
2018-10-17T17:12:29.448Z,16.70
2018-10-17T17:14:58.703Z,16.70
2018-10-17T17:17:27.198Z,16.70
2018-10-17T17:20:02.523Z,16.60
2018-10-17T17:22:31.522Z,16.60
2018-10-17T17:24:59.983Z,16.50
2018-10-17T17:27:29.242Z,16.50
2018-10-17T17:29:58.290Z,16.50
2018-10-17T17:32:28.511Z,16.50
2018-10-17T17:34:57.615Z,16.40
2018-10-17T17:37:26.612Z,16.40
2018-10-17T17:39:56.919Z,16.30
2018-10-17T17:42:30.704Z,16.30
2018-10-17T17:44:59.500Z,16.30
2018-10-17T17:47:32.645Z,16.20
2018-10-17T17:50:03.056Z,16.30
2018-10-17T17:52:32.715Z,16.30
2018-10-17T17:55:05.214Z,16.20
2018-10-17T17:57:34.872Z,16.20
2018-10-17T18:00:05.616Z,16.10
2018-10-17T18:02:34.695Z,16.10
2018-10-17T18:05:05.293Z,16.00
2018-10-17T18:07:34.459Z,15.90
2018-10-17T18:10:05.710Z,15.90
2018-10-17T18:12:34.591Z,15.90
2018-10-17T18:15:03.564Z,15.80
2018-10-17T18:17:33.984Z,15.80
2018-10-17T18:22:40.348Z,15.70
2018-10-17T18:25:08.810Z,15.60
2018-10-17T18:27:40.203Z,15.60
2018-10-17T18:30:11.108Z,15.50
2018-10-17T18:32:40.012Z,15.50
2018-10-17T18:35:08.729Z,15.50
2018-10-17T18:37:38.031Z,15.40
2018-10-17T18:40:08.219Z,15.40
2018-10-17T18:42:39.008Z,15.40
2018-10-17T18:45:07.703Z,15.30
2018-10-17T18:47:36.047Z,15.30
2018-10-17T18:50:04.573Z,15.40
2018-10-17T18:52:32.880Z,15.40
2018-10-17T18:55:01.177Z,15.40
2018-10-17T18:57:30.176Z,15.30
2018-10-17T18:59:58.513Z,15.30
2018-10-17T19:02:26.852Z,15.30
2018-10-17T19:04:55.619Z,15.20
2018-10-17T19:07:24.219Z,15.20
2018-10-17T19:09:52.536Z,15.10
2018-10-17T19:12:21.224Z,15.10
2018-10-17T19:14:49.571Z,15.10
2018-10-17T19:17:18.322Z,15.10
2018-10-17T19:19:46.853Z,15.00
2018-10-17T19:22:16.279Z,15.10
2018-10-17T19:24:45.298Z,15.00
2018-10-17T19:27:13.660Z,14.90
2018-10-17T19:29:42.168Z,14.80
2018-10-17T19:32:10.542Z,14.90
2018-10-17T19:34:38.996Z,14.90
2018-10-17T19:37:07.322Z,15.10
2018-10-17T19:39:36.688Z,15.10
2018-10-17T19:42:06.378Z,15.30
2018-10-17T19:44:34.764Z,15.40
2018-10-17T19:47:03.100Z,15.40
2018-10-17T19:49:31.556Z,15.40
2018-10-17T19:52:00.558Z,15.40
2018-10-17T19:54:28.842Z,15.40
2018-10-17T19:56:58.113Z,15.30
2018-10-17T19:59:26.405Z,15.50
2018-10-17T20:01:55.214Z,15.40
2018-10-17T20:04:23.553Z,15.50
2018-10-17T20:06:52.856Z,15.50
2018-10-17T20:09:21.221Z,15.50
2018-10-17T20:11:49.500Z,15.50
2018-10-17T20:14:17.931Z,15.40
2018-10-17T20:16:46.185Z,15.30
2018-10-17T20:19:14.980Z,15.30
2018-10-17T20:21:43.294Z,15.20
2018-10-17T20:24:12.062Z,15.20
2018-10-17T20:26:41.015Z,15.20
2018-10-17T20:29:09.338Z,15.10
2018-10-17T20:31:37.750Z,15.10
2018-10-17T20:34:06.079Z,15.10
2018-10-17T20:36:34.389Z,15.00
2018-10-17T20:39:02.704Z,15.00
2018-10-17T20:41:31.004Z,15.00
2018-10-17T20:43:59.686Z,15.00
2018-10-17T20:46:28.071Z,15.00
2018-10-17T20:48:56.445Z,15.00
2018-10-17T20:51:24.804Z,15.00
2018-10-17T20:53:53.254Z,15.00
2018-10-17T20:56:22.660Z,14.90
2018-10-17T20:58:50.945Z,14.90
2018-10-17T21:01:19.564Z,14.90
2018-10-17T21:03:48.013Z,14.90
2018-10-17T21:06:16.294Z,14.90
2018-10-17T21:08:44.685Z,14.90
2018-10-17T21:11:13.063Z,14.90
2018-10-17T21:13:41.345Z,14.80
2018-10-17T21:16:09.670Z,14.80
2018-10-17T21:18:38.081Z,14.70
2018-10-17T21:21:06.721Z,14.70
2018-10-17T21:23:34.986Z,14.60
2018-10-17T21:26:03.338Z,14.60
2018-10-17T21:28:31.606Z,14.50
2018-10-17T21:30:59.947Z,14.50
2018-10-17T21:33:28.242Z,14.50
2018-10-17T21:35:56.503Z,14.40
2018-10-17T21:38:24.911Z,14.40
2018-10-17T21:40:53.207Z,14.30
2018-10-17T21:43:21.583Z,14.30
2018-10-17T21:45:49.840Z,14.20
2018-10-17T21:48:18.074Z,14.20
2018-10-17T21:50:46.399Z,14.20
2018-10-17T21:53:14.668Z,14.10
2018-10-17T21:55:43.880Z,14.00
2018-10-17T21:58:12.132Z,14.00
2018-10-17T22:00:40.384Z,13.90
2018-10-17T22:03:08.664Z,13.90
2018-10-17T22:05:36.920Z,13.90
2018-10-17T22:08:05.656Z,13.90
2018-10-17T22:10:33.911Z,13.80
2018-10-17T22:13:02.149Z,13.80
2018-10-17T22:15:30.441Z,13.80
2018-10-17T22:17:58.759Z,13.80
2018-10-17T22:20:27.090Z,13.80
2018-10-17T22:22:55.319Z,13.80
2018-10-17T22:25:23.629Z,13.80
2018-10-17T22:27:51.890Z,13.80
2018-10-17T22:30:20.314Z,13.80
2018-10-17T22:32:48.589Z,13.80
2018-10-17T22:35:16.875Z,13.80
2018-10-17T22:37:45.227Z,13.80
2018-10-17T22:40:13.520Z,13.80
2018-10-17T22:42:42.103Z,13.80
2018-10-17T22:45:10.324Z,13.80
2018-10-17T22:47:38.576Z,13.80
2018-10-17T22:50:07.500Z,13.80
2018-10-17T22:52:35.755Z,13.80
2018-10-17T22:55:04.021Z,13.70
2018-10-17T22:57:32.276Z,13.70
2018-10-17T23:00:00.517Z,13.70
2018-10-17T23:02:28.804Z,13.60
2018-10-17T23:04:57.655Z,13.60
2018-10-17T23:07:25.935Z,13.50
2018-10-17T23:09:54.163Z,13.50
2018-10-17T23:12:22.444Z,13.50
2018-10-17T23:14:50.696Z,13.50
2018-10-17T23:17:19.363Z,13.50
2018-10-17T23:19:47.604Z,13.50
2018-10-17T23:22:15.832Z,13.50
2018-10-17T23:24:44.082Z,13.40
2018-10-17T23:27:12.372Z,13.40
2018-10-17T23:29:40.606Z,13.40
2018-10-17T23:32:08.872Z,13.40
2018-10-17T23:34:37.145Z,13.40
2018-10-17T23:37:05.662Z,13.30
2018-10-17T23:39:33.887Z,13.30
2018-10-17T23:42:02.171Z,13.30
2018-10-17T23:44:30.431Z,13.20
2018-10-17T23:46:58.660Z,13.20
2018-10-17T23:49:26.946Z,13.20
2018-10-17T23:51:55.211Z,13.20
2018-10-17T23:54:23.492Z,13.10
2018-10-17T23:56:51.707Z,13.10
2018-10-17T23:59:20.000Z,13.10
